Time;durP1;ratioP1;P1;durP2;ratioP2;P2;SDS_P1;SDS_P2;PMS_P1;PMS_P2;Temp;Humidity;BMP_temperature;BMP_pressure;BME280_temperature;BME280_humidity;BME280_pressure;Samples;Min_cycle;Max_cycle;Signal;HPM_P1;HPM_P2
2022/01/07 14:38:00;;;;;;;14.68;4.22;;;;;;;;;;5065402;28;20391;-70
2022/01/07 14:40:26;;;;;;;11.35;4.78;;;;;;;;;;5058058;28;20021;-68
2022/01/07 14:42:52;;;;;;;37.85;26.27;;;;;;;;;;5062201;28;20025;-68
2022/01/07 14:45:18;;;;;;;12.35;6.60;;;;;;;;;;5067867;28;20033;-69
2022/01/07 14:47:45;;;;;;;9.30;3.53;;;;;;;;;;5047222;28;20033;-69
2022/01/07 14:50:12;;;;;;;7.88;3.28;;;;;;;;;;5045840;28;20119;-69
2022/01/07 14:52:38;;;;;;;8.43;3.00;;;;;;;;;;5051800;28;20481;-68
2022/01/07 14:55:05;;;;;;;9.13;3.88;;;;;;;;;;5050306;28;20030;-68
2022/01/07 14:57:31;;;;;;;7.65;3.80;;;;;;;;;;5049967;28;20021;-67
2022/01/07 14:59:57;;;;;;;18.98;7.50;;;;;;;;;;5048523;28;20129;-67
2022/01/07 15:02:24;;;;;;;12.25;5.25;;;;;;;;;;5056572;28;20032;-69
2022/01/07 15:04:49;;;;;;;8.07;4.00;;;;;;;;;;5057263;28;20041;-70
2022/01/07 15:07:16;;;;;;;8.38;3.13;;;;;;;;;;5044296;28;20208;-67
2022/01/07 15:09:42;;;;;;;8.10;2.80;;;;;;;;;;5046346;28;20179;-67
2022/01/07 15:12:08;;;;;;;6.25;2.53;;;;;;;;;;5049166;28;20492;-66
2022/01/07 15:14:34;;;;;;;5.50;2.50;;;;;;;;;;5046460;28;20021;-68
2022/01/07 15:17:00;;;;;;;4.82;2.47;;;;;;;;;;5048870;28;20227;-68
2022/01/07 15:19:31;;;;;;;8.07;3.25;;;;;;;;;;5047012;28;20025;-69
2022/01/07 15:21:58;;;;;;;8.90;3.08;;;;;;;;;;5042560;28;20037;-65
2022/01/07 15:24:24;;;;;;;9.07;3.45;;;;;;;;;;5060012;28;20067;-67
2022/01/07 15:26:50;;;;;;;9.15;3.38;;;;;;;;;;5040563;28;20514;-72
2022/01/07 15:29:16;;;;;;;10.60;3.85;;;;;;;;;;5053010;28;20024;-76
2022/01/07 15:31:42;;;;;;;9.25;3.60;;;;;;;;;;5056229;28;20033;-74
2022/01/07 15:34:09;;;;;;;12.30;5.10;;;;;;;;;;5043112;28;20096;-70
2022/01/07 15:36:36;;;;;;;9.80;4.20;;;;;;;;;;5053239;28;20091;-74
2022/01/07 15:39:03;;;;;;;11.43;4.70;;;;;;;;;;5049760;28;20519;-75
2022/01/07 15:41:29;;;;;;;8.80;4.57;;;;;;;;;;5048321;28;20021;-75
2022/01/07 15:43:55;;;;;;;9.80;3.95;;;;;;;;;;5050632;28;20021;-77
2022/01/07 15:46:21;;;;;;;8.55;3.58;;;;;;;;;;5047533;28;20071;-77
2022/01/07 15:48:47;;;;;;;11.68;3.80;;;;;;;;;;5036010;28;20753;-78
2022/01/07 15:51:14;;;;;;;14.40;6.13;;;;;;;;;;5037254;28;20038;-77
2022/01/07 15:53:40;;;;;;;16.52;6.43;;;;;;;;;;5035510;28;20022;-77
2022/01/07 15:56:06;;;;;;;8.43;4.10;;;;;;;;;;5035027;28;20021;-77
2022/01/07 15:58:32;;;;;;;12.60;4.60;;;;;;;;;;5035417;28;20126;-67
2022/01/07 16:00:58;;;;;;;10.32;3.70;;;;;;;;;;5023189;28;20404;-69
2022/01/07 16:03:24;;;;;;;14.23;5.70;;;;;;;;;;5034336;28;20028;-69
2022/01/07 16:05:51;;;;;;;53.25;31.02;;;;;;;;;;5035265;28;20071;-68
2022/01/07 16:08:17;;;;;;;105.78;70.25;;;;;;;;;;5034368;28;20531;-69
2022/01/07 16:10:45;;;;;;;19.77;9.57;;;;;;;;;;5038916;28;20104;-68
2022/01/07 16:13:11;;;;;;;14.82;6.97;;;;;;;;;;5030950;28;20068;-68
2022/01/07 16:15:37;;;;;;;18.30;7.72;;;;;;;;;;5034892;28;20027;-68
2022/01/07 16:18:03;;;;;;;22.70;10.50;;;;;;;;;;5035366;28;20441;-66
2022/01/07 16:20:30;;;;;;;17.80;6.13;;;;;;;;;;5034854;28;20022;-70
2022/01/07 16:22:56;;;;;;;15.25;5.05;;;;;;;;;;5033106;28;20499;-70
2022/01/07 16:25:22;;;;;;;12.73;5.20;;;;;;;;;;5031461;28;20100;-70
2022/01/07 16:27:48;;;;;;;12.23;5.25;;;;;;;;;;5030140;28;20045;-70
2022/01/07 16:30:15;;;;;;;9.93;5.05;;;;;;;;;;5049277;28;20052;-70
2022/01/07 16:32:42;;;;;;;19.45;8.75;;;;;;;;;;5034262;28;20067;-70
2022/01/07 16:35:08;;;;;;;22.17;10.82;;;;;;;;;;5037078;28;20033;-70
2022/01/07 16:37:35;;;;;;;28.63;13.43;;;;;;;;;;5031964;28;20116;-71
2022/01/07 16:40:01;;;;;;;34.55;16.17;;;;;;;;;;5035961;28;20025;-70
2022/01/07 16:42:27;;;;;;;32.63;14.73;;;;;;;;;;5031725;28;20033;-70
2022/01/07 16:44:53;;;;;;;35.70;15.63;;;;;;;;;;5033264;28;20026;-72
2022/01/07 16:47:19;;;;;;;30.38;12.02;;;;;;;;;;5031582;28;20037;-73
2022/01/07 16:49:45;;;;;;;25.08;11.18;;;;;;;;;;5029136;28;20428;-72
2022/01/07 16:52:11;;;;;;;16.52;8.45;;;;;;;;;;5030468;28;20060;-72
2022/01/07 16:54:37;;;;;;;16.33;7.50;;;;;;;;;;5028448;28;20099;-73
2022/01/07 16:57:07;;;;;;;22.40;7.53;;;;;;;;;;5030754;28;20029;-72
2022/01/07 16:59:33;;;;;;;35.15;14.05;;;;;;;;;;5029577;28;20032;-72
2022/01/07 17:01:59;;;;;;;46.30;15.10;;;;;;;;;;5029111;28;20136;-74
2022/01/07 17:04:25;;;;;;;44.22;20.77;;;;;;;;;;5036330;28;20428;-66
2022/01/07 17:06:51;;;;;;;37.20;17.95;;;;;;;;;;5029656;28;20038;-69
2022/01/07 17:09:18;;;;;;;30.73;14.35;;;;;;;;;;5018508;28;20034;-69
2022/01/07 17:11:44;;;;;;;26.63;12.98;;;;;;;;;;5018642;28;20034;-68
2022/01/07 17:14:10;;;;;;;29.75;12.43;;;;;;;;;;5022783;28;20456;-69
2022/01/07 17:16:37;;;;;;;23.77;11.93;;;;;;;;;;5027495;28;20025;-76
2022/01/07 17:19:03;;;;;;;24.65;12.13;;;;;;;;;;5028880;28;20064;-69
2022/01/07 17:21:30;;;;;;;37.10;16.13;;;;;;;;;;5030542;28;20045;-72
2022/01/07 17:23:56;;;;;;;37.53;14.73;;;;;;;;;;5028192;28;20541;-66
2022/01/07 17:26:22;;;;;;;40.55;20.98;;;;;;;;;;5028068;28;20033;-66
2022/01/07 17:28:48;;;;;;;33.53;15.80;;;;;;;;;;5028475;28;20456;-68
2022/01/07 17:31:14;;;;;;;21.05;9.65;;;;;;;;;;5027420;28;20022;-71
2022/01/07 17:33:40;;;;;;;47.75;21.13;;;;;;;;;;5029815;28;20063;-70
2022/01/07 17:36:06;;;;;;;29.95;17.35;;;;;;;;;;5028509;28;20045;-69
2022/01/07 17:38:32;;;;;;;34.03;17.77;;;;;;;;;;5028155;28;20037;-70
2022/01/07 17:40:58;;;;;;;45.45;20.10;;;;;;;;;;5027255;28;20488;-71
2022/01/07 17:43:24;;;;;;;61.92;30.02;;;;;;;;;;5027863;28;20022;-68
2022/01/07 17:45:50;;;;;;;66.70;30.42;;;;;;;;;;5027297;28;20034;-66
2022/01/07 17:48:17;;;;;;;27.05;11.18;;;;;;;;;;5029640;28;20039;-66
2022/01/07 17:50:44;;;;;;;48.58;18.48;;;;;;;;;;5027350;28;20152;-67
2022/01/07 17:53:10;;;;;;;23.50;10.68;;;;;;;;;;5027678;28;20037;-68
2022/01/07 17:55:36;;;;;;;24.55;11.02;;;;;;;;;;5027403;28;20026;-68
2022/01/07 17:58:02;;;;;;;74.50;31.52;;;;;;;;;;5027090;28;20030;-71
2022/01/07 18:00:28;;;;;;;57.85;27.92;;;;;;;;;;5044736;28;20029;-68
2022/01/07 18:02:54;;;;;;;52.22;22.35;;;;;;;;;;5022110;28;20033;-75
2022/01/07 18:05:20;;;;;;;43.58;20.13;;;;;;;;;;5023674;28;20041;-69
2022/01/07 18:07:46;;;;;;;42.05;18.33;;;;;;;;;;5026282;28;20060;-70
2022/01/07 18:10:12;;;;;;;38.80;17.15;;;;;;;;;;5026959;28;20022;-74
2022/01/07 18:12:39;;;;;;;52.28;22.83;;;;;;;;;;5027452;28;20027;-69
2022/01/07 18:15:06;;;;;;;53.10;25.45;;;;;;;;;;5028883;28;20392;-73
2022/01/07 18:17:32;;;;;;;46.00;22.00;;;;;;;;;;5026112;28;20021;-74
2022/01/07 18:19:58;;;;;;;49.05;20.75;;;;;;;;;;5025379;28;20033;-67
2022/01/07 18:22:24;;;;;;;32.60;14.32;;;;;;;;;;5025834;28;20029;-71
2022/01/07 18:24:52;;;;;;;16.35;7.57;;;;;;;;;;5028358;28;20038;-69
2022/01/07 18:27:18;;;;;;;43.60;20.23;;;;;;;;;;5027558;28;20036;-72
2022/01/07 18:29:44;;;;;;;43.90;18.05;;;;;;;;;;5034695;28;20025;-70
2022/01/07 18:32:10;;;;;;;38.63;17.30;;;;;;;;;;5028607;28;20088;-73
2022/01/07 18:34:36;;;;;;;42.05;17.65;;;;;;;;;;5014535;28;20029;-73
2022/01/07 18:37:04;;;;;;;41.75;17.13;;;;;;;;;;5010515;28;20046;-72
2022/01/07 18:39:30;;;;;;;;;;;;;;;;;;5012879;28;20402;-72
2022/01/07 18:41:56;;;;;;;34.05;15.80;;;;;;;;;;5015542;28;19912;-73
2022/01/07 18:44:22;;;;;;;33.28;17.42;;;;;;;;;;5033484;28;20029;-74
2022/01/07 18:46:48;;;;;;;41.45;19.88;;;;;;;;;;5025168;28;20124;-73
2022/01/07 18:49:14;;;;;;;36.42;17.23;;;;;;;;;;5013878;28;20137;-73
2022/01/07 18:51:40;;;;;;;46.38;17.70;;;;;;;;;;5014538;28;20038;-74
2022/01/07 18:54:06;;;;;;;46.35;19.05;;;;;;;;;;5017022;28;20030;-78
2022/01/07 18:56:32;;;;;;;40.80;17.77;;;;;;;;;;5021980;28;20067;-72
2022/01/07 18:58:58;;;;;;;46.53;19.65;;;;;;;;;;5022036;28;20084;-71
2022/01/07 19:01:24;;;;;;;43.25;21.02;;;;;;;;;;5016293;28;20080;-70
2022/01/07 19:03:50;;;;;;;89.50;39.88;;;;;;;;;;5028914;28;20044;-71
2022/01/07 19:06:16;;;;;;;45.80;22.88;;;;;;;;;;5029964;28;20038;-71
2022/01/07 19:08:43;;;;;;;37.88;16.80;;;;;;;;;;5028425;28;20028;-70
2022/01/07 19:11:09;;;;;;;36.85;17.15;;;;;;;;;;5027029;28;20048;-71
2022/01/07 19:13:35;;;;;;;57.13;25.05;;;;;;;;;;5030931;28;20530;-70
2022/01/07 19:16:02;;;;;;;37.50;18.67;;;;;;;;;;5028375;28;20152;-71
2022/01/07 19:18:28;;;;;;;48.13;23.65;;;;;;;;;;5029485;28;20083;-73
2022/01/07 19:20:56;;;;;;;39.70;19.30;;;;;;;;;;5028262;28;20481;-74
2022/01/07 19:23:22;;;;;;;41.65;19.85;;;;;;;;;;5030537;28;20029;-74
2022/01/07 19:25:48;;;;;;;34.50;16.88;;;;;;;;;;5032969;28;20079;-74
2022/01/07 19:28:14;;;;;;;29.45;12.48;;;;;;;;;;5030795;28;20030;-76
2022/01/07 19:30:42;;;;;;;32.08;12.23;;;;;;;;;;5035043;28;20067;-72
2022/01/07 19:33:08;;;;;;;20.00;9.57;;;;;;;;;;5029442;28;20033;-72
2022/01/07 19:35:35;;;;;;;32.97;15.32;;;;;;;;;;5027060;28;20048;-71
2022/01/07 19:38:01;;;;;;;33.67;15.55;;;;;;;;;;5029931;28;20167;-70
2022/01/07 19:40:28;;;;;;;28.23;13.90;;;;;;;;;;5029705;28;20025;-70
2022/01/07 19:42:54;;;;;;;28.35;12.80;;;;;;;;;;5032735;28;20029;-70
2022/01/07 19:45:20;;;;;;;60.63;26.38;;;;;;;;;;5033173;28;20021;-73
2022/01/07 19:47:46;;;;;;;67.95;30.52;;;;;;;;;;5029560;28;20357;-74
2022/01/07 19:50:13;;;;;;;76.95;33.45;;;;;;;;;;5028575;28;20474;-71
2022/01/07 19:52:39;;;;;;;60.88;28.27;;;;;;;;;;5029466;28;20036;-72
2022/01/07 19:55:06;;;;;;;65.18;27.77;;;;;;;;;;5028898;28;20030;-73
2022/01/07 19:57:32;;;;;;;36.90;17.02;;;;;;;;;;5030645;28;20040;-75
2022/01/07 19:59:58;;;;;;;54.00;23.10;;;;;;;;;;5029910;28;20396;-75
2022/01/07 20:02:24;;;;;;;52.50;24.90;;;;;;;;;;5029383;28;20026;-74
2022/01/07 20:04:50;;;;;;;65.88;32.00;;;;;;;;;;5028121;28;20029;-74
2022/01/07 20:07:16;;;;;;;66.30;29.35;;;;;;;;;;5028910;28;20048;-72
2022/01/07 20:09:43;;;;;;;58.28;26.88;;;;;;;;;;5029286;28;20033;-72
2022/01/07 20:12:09;;;;;;;55.53;24.33;;;;;;;;;;5031023;28;20445;-71
2022/01/07 20:14:35;;;;;;;62.10;26.98;;;;;;;;;;5028106;28;20029;-70
2022/01/07 20:17:01;;;;;;;58.42;25.35;;;;;;;;;;5028796;28;20057;-72
2022/01/07 20:19:27;;;;;;;52.13;23.98;;;;;;;;;;5028798;28;20505;-71
2022/01/07 20:21:53;;;;;;;45.17;20.60;;;;;;;;;;5029070;28;20030;-74
2022/01/07 20:24:21;;;;;;;42.35;21.20;;;;;;;;;;5031769;28;20457;-73
2022/01/07 20:26:47;;;;;;;45.00;19.90;;;;;;;;;;5029942;28;20061;-73
2022/01/07 20:29:13;;;;;;;57.33;24.13;;;;;;;;;;5029508;28;20025;-73
2022/01/07 20:31:40;;;;;;;57.38;24.33;;;;;;;;;;5029202;28;20116;-73
2022/01/07 20:34:06;;;;;;;52.63;23.23;;;;;;;;;;5031333;28;20044;-73
2022/01/07 20:36:38;;;;;;;32.22;16.88;;;;;;;;;;5031825;28;20046;-73
2022/01/07 20:39:04;;;;;;;67.72;30.75;;;;;;;;;;5039872;28;20411;-73
2022/01/07 20:41:30;;;;;;;74.00;30.10;;;;;;;;;;5030423;28;20112;-73
2022/01/07 20:43:56;;;;;;;71.70;32.75;;;;;;;;;;5030801;28;20025;-73
2022/01/07 20:46:24;;;;;;;74.35;32.88;;;;;;;;;;5044657;28;20441;-73
2022/01/07 20:48:50;;;;;;;70.32;32.92;;;;;;;;;;5030442;28;20148;-73
2022/01/07 20:51:15;;;;;;;67.40;29.38;;;;;;;;;;5032444;28;20134;-73
2022/01/07 20:53:41;;;;;;;59.70;24.48;;;;;;;;;;5032582;28;20032;-73
2022/01/07 20:56:07;;;;;;;57.50;27.60;;;;;;;;;;5030769;28;20037;-73
2022/01/07 20:58:34;;;;;;;49.00;22.20;;;;;;;;;;5033647;28;20107;-73
2022/01/07 21:01:00;;;;;;;31.77;13.00;;;;;;;;;;5029177;28;20022;-73
2022/01/07 21:03:26;;;;;;;47.38;20.48;;;;;;;;;;5032013;28;20033;-73
2022/01/07 21:05:54;;;;;;;77.25;28.92;;;;;;;;;;5031737;28;20037;-73
2022/01/07 21:08:20;;;;;;;58.67;26.08;;;;;;;;;;5038464;28;20089;-74
2022/01/07 21:10:46;;;;;;;71.38;30.48;;;;;;;;;;5033716;28;20536;-74
2022/01/07 21:13:12;;;;;;;54.03;23.85;;;;;;;;;;5032426;28;20029;-74
2022/01/07 21:15:37;;;;;;;49.90;21.23;;;;;;;;;;5038421;28;20104;-72
2022/01/07 21:18:03;;;;;;;43.30;19.67;;;;;;;;;;5036712;28;20373;-71
2022/01/07 21:20:29;;;;;;;33.67;13.85;;;;;;;;;;5034525;28;20030;-71
2022/01/07 21:22:56;;;;;;;28.17;13.57;;;;;;;;;;5034830;28;20036;-72
2022/01/07 21:25:22;;;;;;;26.95;13.00;;;;;;;;;;5028915;28;20397;-71
2022/01/07 21:27:48;;;;;;;29.63;13.27;;;;;;;;;;5030789;28;20053;-73
2022/01/07 21:30:14;;;;;;;33.55;14.98;;;;;;;;;;5034595;28;20030;-73
2022/01/07 21:32:40;;;;;;;30.40;14.02;;;;;;;;;;5029630;28;20036;-71
2022/01/07 21:35:10;;;;;;;34.70;13.27;;;;;;;;;;5033211;28;20476;-72
2022/01/07 21:37:37;;;;;;;24.27;10.38;;;;;;;;;;5030790;28;20471;-73
2022/01/07 21:40:03;;;;;;;39.28;17.60;;;;;;;;;;5036813;28;20052;-73
2022/01/07 21:42:29;;;;;;;52.78;22.27;;;;;;;;;;5035449;28;20373;-73
2022/01/07 21:44:55;;;;;;;33.58;15.88;;;;;;;;;;5054717;28;20120;-73
2022/01/07 21:47:21;;;;;;;46.05;18.70;;;;;;;;;;5034134;28;20034;-73
2022/01/07 21:49:48;;;;;;;39.17;17.45;;;;;;;;;;5033958;28;20029;-73
2022/01/07 21:52:14;;;;;;;36.63;14.40;;;;;;;;;;5030309;28;20552;-73
2022/01/07 21:54:42;;;;;;;37.97;17.30;;;;;;;;;;5034619;28;20158;-73
2022/01/07 21:57:08;;;;;;;33.58;13.70;;;;;;;;;;5030771;28;20163;-73
2022/01/07 21:59:34;;;;;;;39.67;17.70;;;;;;;;;;5032659;28;20101;-73
2022/01/07 22:02:02;;;;;;;31.33;15.00;;;;;;;;;;5029170;28;20025;-73
2022/01/07 22:04:28;;;;;;;31.67;14.32;;;;;;;;;;5023263;28;20021;-73
2022/01/07 22:06:54;;;;;;;32.28;13.85;;;;;;;;;;5031030;28;20044;-73
2022/01/07 22:09:20;;;;;;;39.72;16.38;;;;;;;;;;5041077;28;20036;-72
2022/01/07 22:11:46;;;;;;;35.30;18.10;;;;;;;;;;5034335;28;20033;-72
2022/01/07 22:14:12;;;;;;;37.72;15.68;;;;;;;;;;5038285;28;20027;-72
2022/01/07 22:16:38;;;;;;;33.88;15.15;;;;;;;;;;5031982;28;20104;-72
2022/01/07 22:19:04;;;;;;;30.77;12.25;;;;;;;;;;5033231;28;20056;-72
2022/01/07 22:21:30;;;;;;;32.60;12.02;;;;;;;;;;5034207;28;20032;-72
2022/01/07 22:23:56;;;;;;;26.05;11.27;;;;;;;;;;5043362;28;20028;-72
2022/01/07 22:26:22;;;;;;;27.42;10.73;;;;;;;;;;5035746;28;20477;-72
2022/01/07 22:28:48;;;;;;;27.08;11.75;;;;;;;;;;5034126;28;20040;-72
2022/01/07 22:31:14;;;;;;;26.92;11.98;;;;;;;;;;5030466;28;20457;-72
2022/01/07 22:33:41;;;;;;;27.40;11.32;;;;;;;;;;5032107;28;20466;-72
2022/01/07 22:36:07;;;;;;;23.23;11.00;;;;;;;;;;5033399;28;20137;-72
2022/01/07 22:38:33;;;;;;;29.25;13.48;;;;;;;;;;5032041;28;20548;-72
2022/01/07 22:40:59;;;;;;;22.60;10.10;;;;;;;;;;5032534;28;20053;-72
2022/01/07 22:43:25;;;;;;;31.63;13.15;;;;;;;;;;5031550;28;20051;-72
2022/01/07 22:45:52;;;;;;;29.48;11.20;;;;;;;;;;5029751;28;20478;-72
2022/01/07 22:48:18;;;;;;;24.98;10.77;;;;;;;;;;5034999;28;20057;-72
2022/01/07 22:50:44;;;;;;;26.23;11.55;;;;;;;;;;5031909;28;20457;-72
2022/01/07 22:53:10;;;;;;;18.25;7.90;;;;;;;;;;5032030;28;20025;-72
2022/01/07 22:55:36;;;;;;;23.23;10.52;;;;;;;;;;5032328;28;20032;-72
2022/01/07 22:58:02;;;;;;;26.00;10.43;;;;;;;;;;5028929;28;20496;-72
2022/01/07 23:00:28;;;;;;;20.15;9.32;;;;;;;;;;5038826;28;20026;-72
2022/01/07 23:02:58;;;;;;;16.05;7.53;;;;;;;;;;5038088;28;20029;-72
2022/01/07 23:05:25;;;;;;;17.67;7.65;;;;;;;;;;5035943;28;20437;-72
2022/01/07 23:07:51;;;;;;;21.88;8.73;;;;;;;;;;5035748;28;20037;-72
2022/01/07 23:10:18;;;;;;;17.58;7.35;;;;;;;;;;5034328;28;20486;-72
2022/01/07 23:12:44;;;;;;;16.27;5.47;;;;;;;;;;5035159;28;20033;-72
2022/01/07 23:15:11;;;;;;;25.83;8.55;;;;;;;;;;5037717;28;20033;-71
2022/01/07 23:17:43;;;;;;;26.25;10.45;;;;;;;;;;5036076;28;20584;-72
2022/01/07 23:20:11;;;;;;;22.02;10.10;;;;;;;;;;5035138;28;20433;-72
2022/01/07 23:22:37;;;;;;;23.83;9.60;;;;;;;;;;5036171;28;20028;-72
2022/01/07 23:25:04;;;;;;;18.58;9.02;;;;;;;;;;5032458;28;20515;-72
2022/01/07 23:27:30;;;;;;;20.80;8.77;;;;;;;;;;5038326;28;20473;-71
2022/01/07 23:29:56;;;;;;;25.17;9.32;;;;;;;;;;5036485;28;20452;-72
2022/01/07 23:32:23;;;;;;;10.27;5.90;;;;;;;;;;5035227;28;20393;-72
2022/01/07 23:34:49;;;;;;;15.45;6.18;;;;;;;;;;5034572;28;20094;-72
2022/01/07 23:37:15;;;;;;;19.70;8.07;;;;;;;;;;5032199;28;20781;-71
2022/01/07 23:39:41;;;;;;;19.90;9.38;;;;;;;;;;5035183;28;20032;-71
2022/01/07 23:42:07;;;;;;;21.63;8.50;;;;;;;;;;5035284;28;20033;-72
2022/01/07 23:44:33;;;;;;;19.92;9.60;;;;;;;;;;5035398;28;20033;-71
2022/01/07 23:46:59;;;;;;;20.92;9.60;;;;;;;;;;5035572;28;20033;-71
2022/01/07 23:49:25;;;;;;;19.42;8.35;;;;;;;;;;5035600;28;20025;-71
2022/01/07 23:51:51;;;;;;;24.80;9.52;;;;;;;;;;5032623;28;20037;-71
2022/01/07 23:54:17;;;;;;;23.75;9.57;;;;;;;;;;5036259;28;20048;-71
2022/01/07 23:56:43;;;;;;;18.77;9.05;;;;;;;;;;5035557;28;20472;-71
2022/01/07 23:59:09;;;;;;;22.52;10.43;;;;;;;;;;5034680;28;20033;-72
